createdAt,value
2022-11-03T00:02:39.957Z,8.38
2022-11-03T00:05:45.907Z,8.28
2022-11-03T00:08:37.901Z,8.25
2022-11-03T00:11:26.664Z,8.17
2022-11-03T00:14:15.602Z,8.29
2022-11-03T00:17:04.074Z,8.13
2022-11-03T00:19:52.486Z,8.22
2022-11-03T00:22:40.971Z,8.23
2022-11-03T00:25:30.754Z,8.10
2022-11-03T00:28:19.195Z,8.09
2022-11-03T00:31:09.156Z,8.03
2022-11-03T00:33:58.059Z,7.96
2022-11-03T00:36:46.518Z,7.95
2022-11-03T00:39:34.958Z,7.96
2022-11-03T00:42:24.747Z,8.12
2022-11-03T00:45:13.205Z,7.71
2022-11-03T00:48:19.364Z,7.95
2022-11-03T00:51:10.012Z,7.86
2022-11-03T00:53:59.453Z,7.77
2022-11-03T00:56:47.880Z,8.06
2022-11-03T00:59:37.638Z,8.04
2022-11-03T01:02:26.121Z,7.98
2022-11-03T01:05:40.550Z,8.00
2022-11-03T01:08:33.352Z,7.76
2022-11-03T01:11:41.142Z,8.06
2022-11-03T01:14:32.135Z,8.10
2022-11-03T01:17:23.795Z,8.15
2022-11-03T01:20:12.573Z,7.97
2022-11-03T01:23:00.988Z,8.05
2022-11-03T01:25:49.431Z,8.01
2022-11-03T01:28:38.372Z,7.91
2022-11-03T01:31:28.071Z,7.87
2022-11-03T01:34:22.755Z,7.74
2022-11-03T01:37:11.195Z,7.65
2022-11-03T01:39:59.610Z,7.41
2022-11-03T01:42:48.047Z,7.50
2022-11-03T01:45:36.448Z,7.44
2022-11-03T01:48:25.328Z,7.40
2022-11-03T01:51:16.632Z,7.11
2022-11-03T01:54:08.110Z,7.22
2022-11-03T01:56:57.026Z,7.15
2022-11-03T01:59:46.124Z,7.18
2022-11-03T02:02:34.757Z,7.11
2022-11-03T02:05:25.229Z,6.38
2022-11-03T02:08:17.916Z,6.99
2022-11-03T02:11:26.638Z,6.99
2022-11-03T02:14:15.480Z,6.80
2022-11-03T02:17:07.640Z,7.09
2022-11-03T02:19:59.213Z,6.81
2022-11-03T02:23:09.354Z,6.50
2022-11-03T02:25:59.801Z,6.99
2022-11-03T02:28:48.296Z,6.97
2022-11-03T02:31:39.345Z,6.69
2022-11-03T02:34:30.281Z,6.71
2022-11-03T02:37:21.073Z,6.83
2022-11-03T02:40:12.857Z,6.75
2022-11-03T02:43:03.834Z,6.59
2022-11-03T02:45:53.762Z,6.61
2022-11-03T02:48:42.214Z,6.57
2022-11-03T02:51:30.626Z,6.59
2022-11-03T02:54:22.773Z,6.54
2022-11-03T02:57:14.283Z,6.35
2022-11-03T03:00:06.803Z,6.52
2022-11-03T03:02:58.641Z,6.47
2022-11-03T03:05:48.578Z,6.29
2022-11-03T03:08:39.944Z,6.42
2022-11-03T03:11:40.460Z,6.43
2022-11-03T03:14:30.934Z,6.57
2022-11-03T03:17:25.557Z,6.57
2022-11-03T03:20:18.577Z,6.47
2022-11-03T03:23:12.716Z,6.33
2022-11-03T03:26:04.243Z,6.21
2022-11-03T03:28:54.879Z,6.16
2022-11-03T03:31:47.307Z,6.13
2022-11-03T03:34:39.116Z,6.16
2022-11-03T03:37:28.078Z,6.42
2022-11-03T03:40:21.567Z,6.24
2022-11-03T03:43:11.854Z,6.58
2022-11-03T03:46:03.754Z,6.42
2022-11-03T03:48:52.300Z,6.72
2022-11-03T03:51:42.311Z,6.84
2022-11-03T03:54:30.735Z,6.91
2022-11-03T03:57:21.559Z,6.93
2022-11-03T04:00:11.394Z,6.94
2022-11-03T04:03:00.299Z,6.85
2022-11-03T04:05:49.325Z,6.75
2022-11-03T04:08:39.115Z,6.69
2022-11-03T04:11:44.932Z,6.57
2022-11-03T04:14:59.462Z,6.42
2022-11-03T04:18:07.002Z,6.38
2022-11-03T04:21:13.058Z,6.32
2022-11-03T04:24:02.915Z,6.20
2022-11-03T04:26:51.352Z,6.24
2022-11-03T04:29:39.777Z,6.08
2022-11-03T04:32:28.267Z,6.11
2022-11-03T04:35:18.220Z,6.01
2022-11-03T04:38:21.337Z,5.94
2022-11-03T04:41:16.320Z,5.84
2022-11-03T04:44:09.091Z,5.97
2022-11-03T04:46:57.896Z,6.04
2022-11-03T04:49:48.401Z,5.93
2022-11-03T04:52:36.886Z,6.02
2022-11-03T04:55:25.656Z,6.20
2022-11-03T04:58:20.867Z,6.29
2022-11-03T05:01:11.902Z,6.16
2022-11-03T05:04:00.407Z,6.18
2022-11-03T05:06:51.767Z,6.14
2022-11-03T05:09:42.786Z,6.29
2022-11-03T05:12:31.953Z,6.22
2022-11-03T05:15:33.430Z,6.27
2022-11-03T05:18:25.386Z,6.14
2022-11-03T05:21:16.551Z,6.09
2022-11-03T05:24:11.920Z,5.96
2022-11-03T05:27:01.065Z,6.04
2022-11-03T05:29:49.605Z,5.99
2022-11-03T05:32:39.390Z,5.94
2022-11-03T05:35:27.861Z,5.90
2022-11-03T05:38:17.895Z,5.69
2022-11-03T05:41:09.294Z,5.92
2022-11-03T05:44:00.600Z,5.95
2022-11-03T05:46:49.034Z,5.94
2022-11-03T05:49:38.894Z,5.96
2022-11-03T05:52:28.512Z,6.00
2022-11-03T05:55:26.105Z,6.14
2022-11-03T05:58:23.202Z,6.12
2022-11-03T06:01:14.847Z,6.10
2022-11-03T06:04:13.179Z,6.18
2022-11-03T06:07:04.304Z,6.16
2022-11-03T06:09:53.472Z,6.16
2022-11-03T06:12:41.957Z,6.18
2022-11-03T06:15:32.137Z,6.04
2022-11-03T06:18:24.278Z,6.21
2022-11-03T06:21:14.249Z,6.13
2022-11-03T06:24:04.033Z,6.25
2022-11-03T06:26:53.199Z,6.23
2022-11-03T06:29:41.642Z,6.10
2022-11-03T06:32:30.552Z,6.12
2022-11-03T06:35:19.255Z,6.14
2022-11-03T06:38:14.233Z,6.41
2022-11-03T06:41:04.080Z,6.73
2022-11-03T06:43:53.269Z,6.97
2022-11-03T06:46:41.735Z,7.20
2022-11-03T06:49:32.730Z,7.14
2022-11-03T06:52:27.499Z,7.45
2022-11-03T06:55:26.114Z,7.55
2022-11-03T06:58:18.827Z,7.68
2022-11-03T07:01:13.749Z,7.70
2022-11-03T07:04:03.744Z,7.68
2022-11-03T07:06:53.775Z,7.58
2022-11-03T07:09:42.387Z,7.62
2022-11-03T07:12:30.866Z,7.60
2022-11-03T07:15:30.178Z,7.56
2022-11-03T07:18:23.211Z,7.38
2022-11-03T07:21:27.057Z,7.66
2022-11-03T07:24:18.913Z,7.75
2022-11-03T07:27:16.208Z,7.82
2022-11-03T07:30:15.545Z,7.87
2022-11-03T07:33:12.903Z,7.87
2022-11-03T07:36:17.295Z,7.85
2022-11-03T07:39:07.130Z,7.63
2022-11-03T07:41:55.579Z,7.68
2022-11-03T07:44:44.153Z,7.68
2022-11-03T07:47:32.678Z,7.76
2022-11-03T07:50:22.562Z,7.89
2022-11-03T07:53:14.038Z,7.94
2022-11-03T07:56:03.318Z,7.60
2022-11-03T07:58:53.484Z,7.93
2022-11-03T08:01:43.510Z,7.95
2022-11-03T08:04:33.839Z,8.07
2022-11-03T08:07:23.660Z,8.17
2022-11-03T08:10:13.664Z,8.27
2022-11-03T08:13:02.108Z,8.17
2022-11-03T08:15:50.546Z,8.24
2022-11-03T08:18:39.026Z,8.32
2022-11-03T08:21:27.438Z,8.40
2022-11-03T08:24:17.239Z,8.52
2022-11-03T08:27:05.717Z,8.59
2022-11-03T08:29:54.218Z,8.81
2022-11-03T08:32:42.676Z,8.96
2022-11-03T08:35:33.199Z,9.11
2022-11-03T08:38:22.664Z,9.19
2022-11-03T08:41:12.473Z,9.34
2022-11-03T08:44:00.934Z,9.55
2022-11-03T08:46:49.339Z,9.75
2022-11-03T08:49:38.022Z,9.97
2022-11-03T08:52:26.465Z,10.14
2022-11-03T08:55:14.952Z,10.27
2022-11-03T08:58:05.310Z,10.38
2022-11-03T09:00:53.970Z,10.49
2022-11-03T09:03:42.652Z,10.53
2022-11-03T09:06:31.758Z,10.72
2022-11-03T09:12:29.624Z,10.91
2022-11-03T09:15:19.712Z,10.98
2022-11-03T09:18:08.408Z,11.10
2022-11-03T09:20:57.160Z,11.13
2022-11-03T09:23:45.633Z,11.26
2022-11-03T09:26:34.104Z,11.33
2022-11-03T09:29:22.606Z,11.45
2022-11-03T09:32:12.401Z,11.59
2022-11-03T09:35:01.050Z,11.37
2022-11-03T09:37:49.555Z,11.78
2022-11-03T09:40:38.137Z,11.81
2022-11-03T09:43:26.719Z,11.86
2022-11-03T09:46:15.851Z,11.86
2022-11-03T09:49:06.227Z,11.88
2022-11-03T09:51:55.773Z,11.87
2022-11-03T09:54:44.245Z,11.86
2022-11-03T09:57:32.696Z,11.82
2022-11-03T10:00:22.700Z,11.91
2022-11-03T10:03:11.910Z,11.82
2022-11-03T10:06:02.442Z,11.92
2022-11-03T10:08:51.006Z,11.92
2022-11-03T10:11:39.594Z,11.89
2022-11-03T10:14:28.026Z,12.02
2022-11-03T10:17:18.445Z,11.76
2022-11-03T10:20:07.661Z,11.99
2022-11-03T10:22:57.500Z,12.02
2022-11-03T10:25:46.578Z,12.03
2022-11-03T10:28:35.910Z,12.04
2022-11-03T10:31:24.341Z,11.99
2022-11-03T10:34:25.711Z,12.00
2022-11-03T10:37:20.818Z,12.08
2022-11-03T10:40:50.002Z,12.21
2022-11-03T10:43:39.044Z,12.19
2022-11-03T10:49:40.848Z,12.25
2022-11-03T10:52:32.298Z,12.37
2022-11-03T10:55:25.398Z,12.40
2022-11-03T10:58:14.191Z,12.46
2022-11-03T11:01:02.751Z,12.45
2022-11-03T11:03:52.148Z,12.45
2022-11-03T11:06:41.460Z,12.54
2022-11-03T11:09:29.980Z,12.54
2022-11-03T11:12:22.579Z,12.57
2022-11-03T11:15:39.584Z,12.57
2022-11-03T11:19:11.726Z,12.59
2022-11-03T11:22:02.696Z,12.63
2022-11-03T11:25:01.760Z,12.67
2022-11-03T11:27:58.879Z,12.55
2022-11-03T11:31:29.852Z,12.73
2022-11-03T11:34:40.215Z,12.88
2022-11-03T11:37:36.659Z,12.88
2022-11-03T11:40:52.128Z,12.90
2022-11-03T11:43:42.017Z,12.93
2022-11-03T11:46:41.112Z,12.97
2022-11-03T11:49:29.733Z,12.98
2022-11-03T11:52:19.196Z,12.97
2022-11-03T11:55:17.554Z,12.97
2022-11-03T11:58:15.241Z,12.98
2022-11-03T12:01:06.877Z,12.93
2022-11-03T12:03:57.371Z,13.03
2022-11-03T12:06:45.966Z,13.02
2022-11-03T12:09:34.467Z,13.03
2022-11-03T12:12:34.462Z,13.03
2022-11-03T12:15:51.817Z,13.05
2022-11-03T12:18:47.682Z,13.07
2022-11-03T12:21:49.097Z,13.08
2022-11-03T12:24:49.538Z,13.04
2022-11-03T12:27:43.323Z,13.10
2022-11-03T12:30:36.882Z,13.12
2022-11-03T12:33:28.854Z,13.19
2022-11-03T12:36:18.608Z,13.16
2022-11-03T12:39:07.240Z,13.12
2022-11-03T12:41:55.719Z,13.17
2022-11-03T12:44:44.316Z,12.96
2022-11-03T12:47:32.794Z,13.20
2022-11-03T12:50:21.277Z,13.16
2022-11-03T12:53:11.079Z,13.13
2022-11-03T12:55:59.551Z,13.12
2022-11-03T12:58:48.143Z,13.11
2022-11-03T13:01:37.616Z,13.10
2022-11-03T13:04:26.233Z,12.97
2022-11-03T13:07:14.781Z,13.07
2022-11-03T13:10:05.163Z,13.08
2022-11-03T13:12:53.714Z,13.11
2022-11-03T13:15:42.287Z,13.09
2022-11-03T13:18:30.754Z,13.14
2022-11-03T13:21:19.539Z,13.11
2022-11-03T13:24:08.416Z,13.09
2022-11-03T13:26:58.267Z,13.15
2022-11-03T13:29:46.715Z,13.25
2022-11-03T13:32:35.185Z,13.27
2022-11-03T13:35:23.808Z,13.20
2022-11-03T13:38:12.255Z,13.31
2022-11-03T13:41:07.081Z,13.32
2022-11-03T13:43:58.428Z,13.30
2022-11-03T13:46:46.860Z,13.36
2022-11-03T13:50:07.858Z,13.36
2022-11-03T13:52:44.131Z,13.35
2022-11-03T13:55:47.855Z,13.38
2022-11-03T14:01:46.294Z,13.39
2022-11-03T14:04:42.424Z,13.36
2022-11-03T14:07:31.855Z,13.47
2022-11-03T14:10:20.342Z,13.47
2022-11-03T14:13:08.581Z,13.55
2022-11-03T14:15:57.607Z,13.57
2022-11-03T14:18:47.442Z,13.49
2022-11-03T14:21:37.293Z,13.59
2022-11-03T14:24:25.769Z,13.65
2022-11-03T14:27:15.705Z,13.61
2022-11-03T14:30:04.901Z,13.72
2022-11-03T14:32:59.208Z,13.65
2022-11-03T14:35:49.477Z,13.62
2022-11-03T14:38:37.986Z,13.65
2022-11-03T14:41:44.042Z,13.70
2022-11-03T14:44:33.506Z,13.60
2022-11-03T14:47:22.472Z,13.64
2022-11-03T14:50:11.038Z,13.75
2022-11-03T14:53:00.809Z,13.55
2022-11-03T14:55:49.305Z,13.86
2022-11-03T14:58:37.753Z,13.92
2022-11-03T15:01:26.319Z,13.80
2022-11-03T15:04:14.886Z,13.85
2022-11-03T15:07:03.335Z,13.82
2022-11-03T15:09:53.137Z,13.85
2022-11-03T15:12:41.608Z,13.84
2022-11-03T15:15:30.061Z,13.91
2022-11-03T15:18:18.538Z,13.80
2022-11-03T15:21:07.543Z,13.73
2022-11-03T15:27:05.751Z,13.97
2022-11-03T15:29:54.247Z,14.03
2022-11-03T15:32:42.747Z,14.05
2022-11-03T15:35:31.355Z,14.01
2022-11-03T15:38:19.922Z,14.09
2022-11-03T15:41:17.137Z,14.15
2022-11-03T15:44:06.925Z,14.07
2022-11-03T15:46:55.371Z,14.30
2022-11-03T15:49:43.842Z,14.31
2022-11-03T15:52:32.297Z,14.25
2022-11-03T15:55:21.638Z,14.30
2022-11-03T15:58:10.455Z,14.35
2022-11-03T16:01:00.611Z,14.31
2022-11-03T16:03:49.131Z,14.23
2022-11-03T16:07:07.431Z,13.97
2022-11-03T16:09:47.447Z,14.12
2022-11-03T16:12:37.481Z,13.98
2022-11-03T16:15:25.938Z,13.95
2022-11-03T16:18:15.758Z,13.85
2022-11-03T16:21:04.414Z,13.81
2022-11-03T16:23:53.041Z,13.84
2022-11-03T16:26:41.459Z,13.72
2022-11-03T16:29:30.061Z,13.53
2022-11-03T16:32:18.521Z,13.30
2022-11-03T16:35:09.800Z,13.19
2022-11-03T16:37:58.227Z,13.06
2022-11-03T16:40:46.680Z,12.97
2022-11-03T16:43:35.162Z,12.95
2022-11-03T16:46:23.601Z,12.74
2022-11-03T16:49:12.038Z,12.70
2022-11-03T16:52:02.046Z,12.61
2022-11-03T16:54:51.710Z,12.56
2022-11-03T16:57:40.474Z,12.59
2022-11-03T17:00:28.951Z,12.53
2022-11-03T17:03:17.571Z,12.53
2022-11-03T17:06:06.258Z,12.51
2022-11-03T17:08:56.086Z,12.54
2022-11-03T17:11:44.771Z,12.42
2022-11-03T17:14:33.202Z,12.30
2022-11-03T17:17:21.695Z,12.18
2022-11-03T17:20:11.988Z,12.29
2022-11-03T17:23:00.441Z,12.26
2022-11-03T17:25:50.322Z,12.30
2022-11-03T17:28:38.802Z,12.21
2022-11-03T17:31:27.415Z,12.29
2022-11-03T17:34:17.559Z,12.17
2022-11-03T17:37:06.418Z,12.17
2022-11-03T17:39:55.009Z,12.22
2022-11-03T17:42:44.832Z,12.35
2022-11-03T17:45:14.544Z,12.31
2022-11-03T17:47:42.935Z,12.25
2022-11-03T17:50:14.216Z,12.25
2022-11-03T17:52:42.893Z,11.50
2022-11-03T17:55:17.945Z,12.15
2022-11-03T17:57:47.791Z,12.04
2022-11-03T18:00:17.907Z,12.03
2022-11-03T18:02:46.309Z,12.21
2022-11-03T18:05:21.977Z,12.23
2022-11-03T18:07:50.726Z,12.05
2022-11-03T18:10:18.929Z,12.12
2022-11-03T18:13:07.357Z,12.14
2022-11-03T18:15:38.213Z,12.13
2022-11-03T18:18:26.437Z,12.09
2022-11-03T18:20:55.210Z,12.03
2022-11-03T18:23:24.898Z,12.05
2022-11-03T18:25:53.949Z,11.99
2022-11-03T18:28:23.890Z,12.00
2022-11-03T18:30:54.311Z,11.82
2022-11-03T18:33:24.744Z,11.94
2022-11-03T18:35:53.930Z,11.91
2022-11-03T18:38:24.014Z,11.91
2022-11-03T18:40:52.313Z,11.91
2022-11-03T18:43:23.408Z,11.98
2022-11-03T18:45:52.543Z,12.05
2022-11-03T18:48:20.726Z,11.98
2022-11-03T18:50:50.447Z,11.91
2022-11-03T18:53:19.797Z,11.87
2022-11-03T18:55:48.552Z,11.86
2022-11-03T18:58:18.356Z,11.89
2022-11-03T19:00:48.354Z,11.87
2022-11-03T19:03:18.190Z,11.89
2022-11-03T19:05:47.819Z,11.87
2022-11-03T19:08:34.690Z,11.87
2022-11-03T19:11:23.154Z,11.82
2022-11-03T19:14:15.635Z,11.87
2022-11-03T19:17:22.558Z,11.85
2022-11-03T19:20:14.438Z,11.82
2022-11-03T19:23:02.968Z,11.87
2022-11-03T19:25:53.861Z,11.94
2022-11-03T19:28:42.375Z,11.94
2022-11-03T19:31:32.999Z,11.92
2022-11-03T19:34:25.160Z,11.90
2022-11-03T19:37:14.584Z,11.87
2022-11-03T19:40:05.834Z,11.85
2022-11-03T19:42:54.767Z,11.86
2022-11-03T19:45:43.292Z,11.69
2022-11-03T19:48:34.217Z,11.61
2022-11-03T19:51:24.115Z,11.66
2022-11-03T19:54:17.069Z,11.69
2022-11-03T19:57:07.076Z,11.67
2022-11-03T19:59:58.736Z,11.67
2022-11-03T20:02:47.578Z,11.63
2022-11-03T20:05:36.431Z,11.75
2022-11-03T20:08:27.542Z,11.65
2022-11-03T20:11:16.056Z,11.65
2022-11-03T20:14:05.322Z,11.65
2022-11-03T20:16:54.398Z,11.68
2022-11-03T20:19:42.927Z,11.63
2022-11-03T20:22:31.461Z,11.72
2022-11-03T20:25:23.599Z,11.71
2022-11-03T20:28:17.809Z,11.71
2022-11-03T20:31:07.663Z,11.71
2022-11-03T20:33:56.104Z,11.79
2022-11-03T20:36:44.779Z,11.75
2022-11-03T20:39:33.805Z,11.68
2022-11-03T20:42:24.830Z,11.73
2022-11-03T20:45:14.532Z,11.56
2022-11-03T20:48:03.213Z,11.61
2022-11-03T20:50:52.076Z,10.83
2022-11-03T20:53:40.598Z,11.58
2022-11-03T20:56:29.688Z,11.63
2022-11-03T20:59:23.037Z,11.61
2022-11-03T21:02:12.798Z,11.63
2022-11-03T21:05:01.488Z,11.57
2022-11-03T21:07:50.553Z,11.58
2022-11-03T21:10:40.138Z,11.58
2022-11-03T21:13:29.388Z,11.69
2022-11-03T21:16:36.549Z,11.97
2022-11-03T21:19:55.437Z,12.09
2022-11-03T21:22:53.910Z,12.14
2022-11-03T21:25:42.762Z,12.16
2022-11-03T21:28:31.210Z,12.20
2022-11-03T21:31:20.994Z,12.28
2022-11-03T21:34:09.470Z,12.36
2022-11-03T21:36:57.974Z,12.30
2022-11-03T21:39:47.308Z,12.35
2022-11-03T21:42:53.456Z,12.32
2022-11-03T21:45:42.011Z,12.29
2022-11-03T21:48:49.474Z,12.25
2022-11-03T21:51:37.947Z,12.20
2022-11-03T21:54:26.497Z,10.84
2022-11-03T21:57:16.232Z,12.08
2022-11-03T22:00:05.736Z,12.01
2022-11-03T22:02:54.202Z,11.97
2022-11-03T22:05:44.017Z,11.99
2022-11-03T22:08:32.448Z,11.87
2022-11-03T22:11:24.068Z,11.83
2022-11-03T22:14:13.498Z,11.81
2022-11-03T22:20:11.920Z,11.67
2022-11-03T22:23:20.352Z,11.55
2022-11-03T22:26:27.486Z,11.60
2022-11-03T22:29:33.593Z,11.61
2022-11-03T22:32:22.095Z,11.58
2022-11-03T22:35:29.777Z,11.50
2022-11-03T22:38:40.265Z,11.50
2022-11-03T22:41:45.963Z,11.52
2022-11-03T22:44:51.863Z,11.57
2022-11-03T22:47:40.344Z,11.48
2022-11-03T22:50:28.779Z,11.35
2022-11-03T22:53:34.567Z,11.48
2022-11-03T22:56:25.798Z,11.57
2022-11-03T22:59:14.351Z,11.50
2022-11-03T23:02:02.878Z,11.52
2022-11-03T23:04:51.436Z,11.48
2022-11-03T23:07:41.547Z,11.45
2022-11-03T23:10:31.278Z,11.52
2022-11-03T23:13:21.076Z,11.52
2022-11-03T23:16:14.890Z,11.47
2022-11-03T23:19:21.987Z,10.72
2022-11-03T23:22:10.419Z,11.55
2022-11-03T23:25:01.019Z,11.50
2022-11-03T23:27:49.501Z,11.65
2022-11-03T23:30:39.271Z,11.45
2022-11-03T23:33:27.708Z,11.60
2022-11-03T23:36:18.000Z,11.08
2022-11-03T23:39:07.281Z,11.44
2022-11-03T23:41:55.921Z,11.68
2022-11-03T23:45:01.698Z,11.67
2022-11-03T23:48:09.444Z,11.65
2022-11-03T23:50:58.199Z,11.65
2022-11-03T23:53:47.254Z,11.79
2022-11-03T23:56:54.947Z,11.81
